Time;durP1;ratioP1;P1;durP2;ratioP2;P2;SDS_P1;SDS_P2;PMS_P1;PMS_P2;Temp;Humidity;BMP_temperature;BMP_pressure;BME280_temperature;BME280_humidity;BME280_pressure;Samples;Min_cycle;Max_cycle;Signal;HPM_P1;HPM_P2
2022/02/06 00:00:32;;;;;;;63.72;40.92;;;;;;;6.87;59.65;102101.09;5009938;28;20121;-62
2022/02/06 00:02:59;;;;;;;59.28;39.63;;;;;;;6.84;59.36;102099.41;5010584;28;20129;-62
2022/02/06 00:05:26;;;;;;;58.88;39.50;;;;;;;6.79;59.44;102096.03;5010371;28;20085;-62
2022/02/06 00:07:52;;;;;;;58.20;39.88;;;;;;;6.82;59.54;102093.34;5010506;28;20045;-62
2022/02/06 00:10:19;;;;;;;58.15;39.35;;;;;;;6.81;59.31;102099.47;5009090;28;20045;-62
2022/02/06 00:12:47;;;;;;;65.72;40.95;;;;;;;6.78;59.48;102096.03;5007107;28;20056;-63
2022/02/06 00:15:14;;;;;;;61.83;40.47;;;;;;;6.79;59.50;102090.81;5007358;28;20041;-62
2022/02/06 00:17:41;;;;;;;63.90;42.50;;;;;;;6.76;59.49;102090.00;5010238;28;20046;-62
2022/02/06 00:20:08;;;;;;;65.15;41.40;;;;;;;6.74;59.46;102099.59;5010375;28;20050;-62
2022/02/06 00:22:45;;;;;;;65.57;40.03;;;;;;;6.69;59.61;102105.78;5010137;28;20141;-62
2022/02/06 00:25:47;;;;;;;64.90;40.58;;;;;;;6.66;59.63;102104.97;5010301;28;20046;-62
2022/02/06 00:28:33;;;;;;;61.40;39.35;;;;;;;6.64;59.29;102098.91;4990140;28;20046;-62
2022/02/06 00:31:18;;;;;;;60.80;39.20;;;;;;;6.60;59.43;102098.13;4990162;28;20073;-62
2022/02/06 00:39:15;;;;;;;64.43;42.15;;;;;;;6.43;59.37;102097.56;4990228;28;20047;-62
2022/02/06 00:41:42;;;;;;;71.38;44.47;;;;;;;6.46;59.42;102094.88;4990183;28;20138;-62
2022/02/06 00:44:09;;;;;;;74.70;46.53;;;;;;;6.49;59.72;102100.06;4997463;28;20076;-62
2022/02/06 00:46:38;;;;;;;77.60;47.42;;;;;;;6.52;59.66;102092.19;5009690;28;20061;-62
2022/02/06 00:49:23;;;;;;;75.70;45.58;;;;;;;6.52;59.90;102095.63;5009693;28;20104;-62
2022/02/06 00:51:56;;;;;;;81.75;50.65;;;;;;;6.50;60.25;102100.03;5009703;28;20490;-62
2022/02/06 00:54:23;;;;;;;84.22;51.53;;;;;;;6.52;60.14;102090.41;5009460;28;20096;-62
2022/02/06 00:56:50;;;;;;;85.25;52.92;;;;;;;6.49;60.29;102092.25;5009107;28;20054;-63
2022/02/06 00:59:17;;;;;;;84.38;50.75;;;;;;;6.46;60.62;102097.50;5009278;28;20081;-62
2022/02/06 01:01:44;;;;;;;83.53;49.15;;;;;;;6.43;60.61;102092.34;5009042;28;20046;-65
2022/02/06 01:04:12;;;;;;;82.10;48.50;;;;;;;6.40;60.48;102095.88;5012898;28;20049;-62
2022/02/06 01:06:39;;;;;;;69.65;44.15;;;;;;;6.38;60.48;102097.63;5012653;28;20046;-62
2022/02/06 01:09:07;;;;;;;74.72;46.03;;;;;;;6.35;60.38;102097.69;5012737;28;20184;-63
2022/02/06 01:11:36;;;;;;;67.85;42.60;;;;;;;6.34;60.46;102102.03;5012293;28;20054;-62
2022/02/06 01:16:48;;;;;;;74.13;46.60;;;;;;;6.32;60.19;102100.34;5012376;28;20061;-64
2022/02/06 01:19:21;;;;;;;63.43;40.23;;;;;;;6.28;60.51;102096.91;5011645;28;20050;-62
2022/02/06 01:21:59;;;;;;;65.10;42.22;;;;;;;6.19;60.30;102097.94;5012629;28;20289;-62
2022/02/06 01:30:33;;;;;;;75.18;45.40;;;;;;;6.16;59.92;102094.53;4999656;28;20054;-62
2022/02/06 01:33:10;;;;;;;72.55;45.35;;;;;;;6.16;60.03;102102.34;5011608;28;20049;-62
2022/02/06 01:35:58;;;;;;;74.97;44.72;;;;;;;6.12;59.86;102098.94;5011491;28;20049;-62
2022/02/06 01:38:30;;;;;;;71.63;44.78;;;;;;;6.14;59.70;102097.16;5012530;28;20128;-62
2022/02/06 01:41:04;;;;;;;74.97;44.35;;;;;;;6.19;59.86;102102.28;5012497;28;20041;-62
2022/02/06 01:43:42;;;;;;;69.82;44.78;;;;;;;6.20;59.72;102094.44;5012428;28;20049;-62
2022/02/06 01:46:27;;;;;;;70.63;44.78;;;;;;;6.16;59.64;102087.56;5012525;28;20506;-62
2022/02/06 02:00:30;;;;;;;73.20;44.55;;;;;;;6.15;59.74;102064.16;5012249;28;20053;-62
2022/02/06 02:03:04;;;;;;;71.15;44.25;;;;;;;6.13;60.12;102060.69;5011991;28;20042;-62
2022/02/06 02:27:25;;;;;;;81.15;47.58;;;;;;;5.84;61.03;102070.69;5014617;28;20077;-62
2022/02/06 02:44:41;;;;;;;81.25;46.95;;;;;;;5.59;61.06;102059.75;5012028;28;20042;-62
2022/02/06 02:46:31;;;;;;;74.40;45.92;;;;;;;5.52;61.01;102064.19;5008084;28;20046;-62
2022/02/06 02:49:00;;;;;;;62.22;39.42;;;;;;;5.46;60.88;102055.59;5012053;28;20054;-62
2022/02/06 02:51:32;;;;;;;65.93;43.40;;;;;;;5.47;60.67;102060.81;5011882;28;20133;-62
2022/02/06 02:54:05;;;;;;;73.47;43.63;;;;;;;5.49;60.62;102052.97;5011858;28;20053;-62
2022/02/06 02:59:35;;;;;;;52.13;35.97;;;;;;;5.44;60.58;102053.03;5003570;28;20112;-62
2022/02/06 03:02:04;;;;;;;51.35;34.92;;;;;;;5.42;60.80;102048.72;5011704;28;20446;-62
2022/02/06 03:04:32;;;;;;;50.97;33.85;;;;;;;5.40;60.99;102056.56;5011516;28;20454;-62
2022/02/06 03:06:59;;;;;;;57.05;37.08;;;;;;;5.45;60.78;102040.88;5011718;28;20120;-62
2022/02/06 03:09:26;;;;;;;60.33;39.08;;;;;;;5.45;60.62;102043.50;5011458;28;20092;-62
2022/02/06 03:11:52;;;;;;;58.47;37.28;;;;;;;5.39;60.88;102037.44;5011300;28;20375;-62
2022/02/06 03:14:26;;;;;;;60.78;37.80;;;;;;;5.40;60.96;102035.72;5010170;28;20069;-62
2022/02/06 03:17:03;;;;;;;56.65;36.55;;;;;;;5.37;61.10;102028.81;5011437;28;20391;-62
2022/02/06 03:19:39;;;;;;;56.63;36.60;;;;;;;5.38;61.08;102037.47;5011419;28;20050;-62
2022/02/06 03:22:07;;;;;;;56.83;37.35;;;;;;;5.35;61.12;102030.56;5011162;28;20046;-62
2022/02/06 03:24:41;;;;;;;58.95;38.03;;;;;;;5.36;60.93;102021.91;5011128;28;20100;-62
2022/02/06 03:27:08;;;;;;;54.38;36.95;;;;;;;5.37;61.06;102027.94;5011425;28;20100;-62
2022/02/06 03:29:34;;;;;;;55.20;36.80;;;;;;;5.37;61.01;102020.13;5009884;28;20058;-62
2022/02/06 03:32:01;;;;;;;55.05;35.53;;;;;;;5.38;60.78;102021.88;5011045;28;20050;-62
2022/02/06 03:34:28;;;;;;;68.18;41.22;;;;;;;5.34;61.08;102025.41;5011301;28;20050;-62
2022/02/06 03:36:55;;;;;;;69.32;43.72;;;;;;;5.32;60.92;102025.44;5011077;28;20053;-62
2022/02/06 03:39:23;;;;;;;69.13;42.15;;;;;;;5.34;60.69;102028.00;5010570;28;20052;-62
2022/02/06 03:42:06;;;;;;;66.47;42.85;;;;;;;5.28;60.70;102031.56;5010900;28;20096;-62
2022/02/06 03:44:42;;;;;;;69.45;43.33;;;;;;;5.25;60.43;102025.53;5010679;28;20053;-62
2022/02/06 03:47:16;;;;;;;;;;;;;;;5.22;60.62;102031.66;5010167;28;20479;-62
2022/02/06 03:49:57;;;;;;;67.10;41.45;;;;;;;5.22;60.56;102031.66;5010658;28;20270;-62
2022/02/06 03:52:31;;;;;;;70.13;40.33;;;;;;;5.18;60.28;102025.63;5010784;28;20042;-62
2022/02/06 03:54:58;;;;;;;65.70;41.47;;;;;;;5.19;60.41;102023.88;5010749;28;20454;-62
2022/02/06 03:57:24;;;;;;;66.22;40.63;;;;;;;5.22;60.39;102023.84;5010518;28;20058;-62
2022/02/06 03:59:51;;;;;;;66.97;40.95;;;;;;;5.20;60.55;102025.59;5010383;28;20487;-62
2022/02/06 04:02:18;;;;;;;66.43;41.70;;;;;;;5.19;60.39;102027.34;5010464;28;20481;-62
2022/02/06 04:04:44;;;;;;;68.88;40.17;;;;;;;5.21;60.63;102022.13;5009426;28;20119;-62
2022/02/06 04:07:13;;;;;;;61.22;39.95;;;;;;;5.20;60.55;102025.59;5010326;28;20056;-62
2022/02/06 04:09:48;;;;;;;65.95;40.08;;;;;;;5.17;60.60;102010.88;5010257;28;20053;-62
2022/02/06 04:12:17;;;;;;;63.25;40.15;;;;;;;5.20;60.46;102017.78;5010306;28;20055;-62
2022/02/06 04:15:06;;;;;;;62.75;38.28;;;;;;;5.15;60.55;102011.78;5010479;28;20449;-61
2022/02/06 04:17:42;;;;;;;67.07;39.40;;;;;;;5.09;60.64;102006.66;5009966;28;20054;-62
2022/02/06 04:20:09;;;;;;;;;;;;;;;5.05;60.51;102009.31;5009467;28;20054;-62
2022/02/06 04:22:35;;;;;;;61.85;37.75;;;;;;;5.12;60.58;102004.88;5010330;28;19925;-62
2022/02/06 04:25:03;;;;;;;63.92;39.80;;;;;;;5.09;60.45;102012.72;5010261;28;20396;-62
2022/02/06 04:27:30;;;;;;;68.78;39.58;;;;;;;5.02;60.51;102009.34;5009592;28;20046;-62
2022/02/06 04:29:57;;;;;;;65.00;39.97;;;;;;;5.02;60.60;102011.09;5009950;28;20057;-62
2022/02/06 04:32:26;;;;;;;62.10;37.80;;;;;;;5.04;60.67;102006.72;5010321;28;20046;-62
2022/02/06 04:34:55;;;;;;;54.75;35.70;;;;;;;5.04;60.95;102002.38;5009429;28;20050;-62
2022/02/06 04:40:14;;;;;;;57.20;36.20;;;;;;;5.09;60.80;101994.50;5010172;28;20045;-62
2022/02/06 05:20:25;;;;;;;51.47;33.95;;;;;;;4.55;61.60;101996.03;5008280;28;20042;-62
2022/02/06 05:31:00;;;;;;;59.28;39.10;;;;;;;4.41;60.85;101980.59;5009083;28;20054;-62
2022/02/06 05:33:27;;;;;;;71.32;43.22;;;;;;;4.33;61.14;101979.81;5009278;28;20046;-62
2022/02/06 05:35:54;;;;;;;57.03;36.65;;;;;;;4.30;60.96;101985.03;5009108;28;20042;-62
2022/02/06 05:38:21;;;;;;;55.25;36.75;;;;;;;4.33;60.87;101978.94;5009069;28;20061;-62
2022/02/06 05:40:48;;;;;;;58.10;35.85;;;;;;;4.32;60.56;101988.50;5008084;28;21004;-62
2022/02/06 05:43:14;;;;;;;49.38;33.70;;;;;;;4.26;60.59;101991.16;5009157;28;20046;-62
2022/02/06 05:45:41;;;;;;;48.03;31.98;;;;;;;4.23;60.57;101989.44;5009145;28;20104;-62
2022/02/06 05:48:08;;;;;;;44.38;33.80;;;;;;;4.22;60.51;101998.09;5011163;28;20046;-62
2022/02/06 05:50:42;;;;;;;39.95;28.33;;;;;;;4.19;60.54;101989.47;5012868;28;20129;-63
2022/02/06 05:53:10;;;;;;;36.38;26.73;;;;;;;4.11;60.43;101992.16;5012940;28;20046;-62
2022/02/06 05:55:38;;;;;;;44.65;28.02;;;;;;;4.01;60.78;101990.50;5011662;28;20046;-62
2022/02/06 05:58:05;;;;;;;38.08;28.83;;;;;;;3.99;60.74;101992.28;5012690;28;20046;-62
2022/02/06 06:00:32;;;;;;;47.97;29.00;;;;;;;3.96;60.61;101987.97;5012739;28;20046;-62
2022/02/06 06:03:00;;;;;;;38.15;29.02;;;;;;;3.87;60.82;101988.91;5012575;28;20053;-62
2022/02/06 06:05:27;;;;;;;37.42;28.83;;;;;;;3.84;60.94;101985.47;5012645;28;20433;-62
2022/02/06 06:07:54;;;;;;;40.08;29.52;;;;;;;3.81;60.75;101981.19;5012803;28;20049;-62
2022/02/06 06:10:24;;;;;;;36.05;27.92;;;;;;;3.79;60.66;101989.84;5012544;28;20064;-61
2022/02/06 06:13:00;;;;;;;40.17;29.38;;;;;;;3.80;60.44;101992.44;5011625;28;20088;-61
2022/02/06 06:15:38;;;;;;;35.70;27.50;;;;;;;3.79;60.26;101985.50;5012008;28;20046;-61
2022/02/06 06:18:13;;;;;;;36.05;27.48;;;;;;;3.76;60.37;101988.16;5012164;28;20053;-62
2022/02/06 06:20:42;;;;;;;35.95;27.60;;;;;;;3.74;60.29;101989.88;5012359;28;20042;-62
2022/02/06 06:23:09;;;;;;;38.20;27.58;;;;;;;3.73;60.41;101993.34;5012467;28;20057;-62
2022/02/06 06:25:41;;;;;;;35.78;28.52;;;;;;;3.73;60.11;101998.53;5012339;28;20117;-62
2022/02/06 06:28:08;;;;;;;37.78;28.75;;;;;;;3.67;60.14;101999.47;5012490;28;20391;-62
2022/02/06 06:30:36;;;;;;;35.47;27.88;;;;;;;3.68;60.06;102001.19;5010913;28;20054;-62
2022/02/06 06:33:06;;;;;;;37.55;29.08;;;;;;;3.63;60.04;102005.56;5012016;28;20050;-62
2022/02/06 06:35:53;;;;;;;33.58;26.55;;;;;;;3.59;60.13;102002.13;5012211;28;20084;-62
2022/02/06 06:38:20;;;;;;;33.95;27.38;;;;;;;3.65;59.74;102008.97;5011769;28;20553;-62
2022/02/06 06:40:46;;;;;;;36.50;27.88;;;;;;;3.66;59.83;102010.72;5012050;28;20046;-62
2022/02/06 06:43:13;;;;;;;35.15;26.75;;;;;;;3.64;59.76;102009.00;5011749;28;20041;-62
2022/02/06 06:45:41;;;;;;;37.85;27.25;;;;;;;3.58;59.74;102007.28;5011764;28;20046;-62
2022/02/06 06:48:07;;;;;;;33.13;26.30;;;;;;;3.56;59.74;102014.25;5010735;28;20553;-61
2022/02/06 06:50:34;;;;;;;33.13;26.50;;;;;;;3.62;59.50;102009.00;5011651;28;20100;-61
2022/02/06 06:53:03;;;;;;;33.50;27.10;;;;;;;3.62;59.78;102015.91;5011592;28;20049;-62
2022/02/06 06:55:33;;;;;;;32.75;25.02;;;;;;;3.63;59.20;102017.66;5011593;28;20045;-62
2022/02/06 06:58:12;;;;;;;32.33;26.20;;;;;;;3.66;59.26;102015.06;5011046;28;20486;-62
2022/02/06 07:01:42;;;;;;;33.10;24.58;;;;;;;3.65;59.44;102014.16;5011604;28;20084;-62
2022/02/06 07:03:26;;;;;;;34.35;26.33;;;;;;;3.73;59.44;102020.19;5009810;28;20046;-62
2022/02/06 07:05:53;;;;;;;32.80;25.55;;;;;;;3.79;59.22;102011.47;5011541;28;20525;-62
2022/02/06 07:08:20;;;;;;;31.33;25.75;;;;;;;3.81;59.11;102017.53;5011353;28;20132;-61
2022/02/06 07:10:48;;;;;;;31.58;26.35;;;;;;;3.80;59.12;102012.34;5011333;28;20120;-61
2022/02/06 07:13:17;;;;;;;32.28;25.92;;;;;;;3.84;58.89;102009.69;5011613;28;20073;-62
2022/02/06 07:15:44;;;;;;;31.65;24.58;;;;;;;3.91;58.84;102011.38;5011375;28;20048;-62
2022/02/06 07:18:11;;;;;;;30.13;25.90;;;;;;;3.96;58.92;102010.47;5011271;28;20050;-62
2022/02/06 07:20:38;;;;;;;29.58;24.08;;;;;;;4.02;58.82;102013.88;5010234;28;20151;-62
2022/02/06 07:23:06;;;;;;;27.60;23.05;;;;;;;4.18;58.47;102005.97;5011302;28;20414;-62
2022/02/06 07:25:33;;;;;;;27.98;23.23;;;;;;;4.25;58.50;102007.59;5011234;28;20054;-62
2022/02/06 07:28:02;;;;;;;31.25;25.35;;;;;;;4.28;58.73;102006.72;5010853;28;20486;-62
2022/02/06 07:30:28;;;;;;;32.38;26.63;;;;;;;4.30;58.65;102007.56;5010747;28;20434;-62
2022/02/06 07:32:55;;;;;;;34.03;27.48;;;;;;;4.40;58.56;102007.44;5011126;28;20042;-62
2022/02/06 07:35:21;;;;;;;29.05;25.00;;;;;;;4.56;58.46;102009.91;5011159;28;20101;-62
2022/02/06 07:37:55;;;;;;;30.98;23.83;;;;;;;4.55;58.21;102003.81;5008838;28;20049;-62
2022/02/06 07:40:23;;;;;;;28.95;25.08;;;;;;;4.70;58.15;102001.94;5011168;28;20521;-62
2022/02/06 07:42:50;;;;;;;33.03;25.30;;;;;;;4.86;58.15;102000.00;5011151;28;20045;-62
2022/02/06 07:45:17;;;;;;;31.45;25.20;;;;;;;4.97;57.76;101987.72;5010751;28;20079;-62
2022/02/06 07:47:45;;;;;;;33.35;25.80;;;;;;;5.13;57.72;101997.91;5011067;28;20053;-63
2022/02/06 07:50:14;;;;;;;32.10;25.40;;;;;;;5.22;57.53;101997.81;5010707;28;20046;-62
2022/02/06 07:52:41;;;;;;;33.97;26.75;;;;;;;5.29;57.71;101993.38;5010440;28;20045;-62
2022/02/06 07:55:09;;;;;;;36.95;28.20;;;;;;;5.51;57.72;101996.50;5009699;28;20490;-61
2022/02/06 07:57:36;;;;;;;40.05;28.63;;;;;;;5.55;57.67;101999.06;5010787;28;20049;-62
2022/02/06 08:00:06;;;;;;;36.53;28.42;;;;;;;5.71;57.31;101997.09;5010679;28;20388;-62
2022/02/06 08:02:33;;;;;;;36.63;27.98;;;;;;;5.87;57.13;101996.81;5010516;28;20053;-62
2022/02/06 08:05:02;;;;;;;36.83;26.98;;;;;;;6.01;57.08;102002.69;5010420;28;20042;-62
2022/02/06 08:07:29;;;;;;;37.58;27.85;;;;;;;5.89;57.70;102005.44;5010239;28;20680;-62
2022/02/06 08:09:58;;;;;;;40.40;29.48;;;;;;;6.10;57.54;102012.09;5008662;28;20048;-61
2022/02/06 08:12:29;;;;;;;38.88;28.30;;;;;;;6.28;57.41;102008.28;5010289;28;20132;-62
2022/02/06 08:14:59;;;;;;;41.03;30.42;;;;;;;6.39;57.30;102018.53;5010344;28;20053;-61
2022/02/06 08:17:32;;;;;;;40.03;30.15;;;;;;;6.51;57.10;102022.66;5010090;28;20045;-62
2022/02/06 08:20:01;;;;;;;39.22;28.73;;;;;;;6.65;57.14;102023.25;5010250;28;20069;-62
2022/02/06 08:22:28;;;;;;;46.22;33.35;;;;;;;6.84;57.02;102015.06;5010156;28;20053;-63
2022/02/06 08:24:55;;;;;;;71.30;42.22;;;;;;;6.96;56.71;102014.81;5010411;28;20056;-62
2022/02/06 08:27:24;;;;;;;45.75;31.80;;;;;;;7.14;56.78;102010.09;5010035;28;20092;-62
2022/02/06 08:29:51;;;;;;;64.32;41.70;;;;;;;7.23;56.74;102011.63;5009281;28;20069;-62
2022/02/06 08:32:21;;;;;;;72.03;43.28;;;;;;;7.49;56.59;102008.41;5009578;28;20050;-61
2022/02/06 08:34:48;;;;;;;125.10;68.78;;;;;;;7.58;56.29;102000.38;5009454;28;20107;-62
2022/02/06 08:37:15;;;;;;;128.75;71.30;;;;;;;7.70;56.54;102004.44;5009871;28;20050;-62
2022/02/06 08:39:43;;;;;;;82.18;48.17;;;;;;;7.92;56.18;102009.13;5009659;28;20057;-62
2022/02/06 08:42:13;;;;;;;69.82;45.45;;;;;;;7.87;56.46;102000.56;5009746;28;20049;-61
2022/02/06 08:44:43;;;;;;;97.50;59.78;;;;;;;7.76;57.08;101988.63;5009496;28;20046;-62
2022/02/06 08:47:12;;;;;;;85.15;53.53;;;;;;;7.99;56.65;101988.03;5008526;28;20128;-62
2022/02/06 08:49:40;;;;;;;115.32;67.28;;;;;;;7.84;57.23;101991.88;5009367;28;20112;-62
2022/02/06 08:52:08;;;;;;;77.07;49.83;;;;;;;7.67;58.09;101994.94;5009531;28;20050;-62
2022/02/06 08:54:37;;;;;;;70.75;45.90;;;;;;;7.29;59.57;101995.84;5009435;28;20056;-62
2022/02/06 08:57:33;;;;;;;105.03;60.63;;;;;;;7.18;60.78;102003.91;5009700;28;20395;-62
2022/02/06 08:59:58;;;;;;;90.70;54.42;;;;;;;7.11;61.67;101999.69;5009566;28;20101;-62
2022/02/06 09:02:25;;;;;;;88.00;53.60;;;;;;;7.09;62.64;101999.72;5009394;28;20479;-62
2022/02/06 09:04:52;;;;;;;84.97;50.38;;;;;;;7.00;63.70;101994.72;5008306;28;20060;-62
2022/02/06 09:07:20;;;;;;;90.93;54.30;;;;;;;7.07;64.00;101998.06;5007376;28;20054;-61
2022/02/06 09:09:50;;;;;;;119.40;66.68;;;;;;;7.01;64.45;101996.44;5000172;28;21137;-60
2022/02/06 09:12:17;;;;;;;124.25;68.35;;;;;;;7.07;65.10;101992.84;4996901;28;20043;-60
2022/02/06 09:14:46;;;;;;;97.43;55.65;;;;;;;7.27;65.11;101995.84;4998590;28;20049;-60
2022/02/06 09:17:13;;;;;;;106.35;60.65;;;;;;;7.35;65.20;102003.50;5000258;28;20042;-60
2022/02/06 09:19:40;;;;;;;114.30;68.43;;;;;;;7.38;65.56;101999.97;4998689;28;20502;-60
2022/02/06 09:22:08;;;;;;;111.53;62.85;;;;;;;7.40;66.33;101991.19;5003174;28;20506;-61
2022/02/06 09:24:36;;;;;;;113.57;64.32;;;;;;;7.40;66.53;101991.19;5008157;28;20133;-61
2022/02/06 09:27:04;;;;;;;115.85;65.47;;;;;;;7.39;67.12;101989.50;5000210;28;20495;-62
2022/02/06 09:29:32;;;;;;;107.38;60.35;;;;;;;7.41;67.32;101992.94;4996962;28;20054;-60
2022/02/06 09:37:21;;;;;;;150.60;86.95;;;;;;;7.44;68.61;101984.16;5002498;28;20827;-61
2022/02/06 09:39:47;;;;;;;129.20;74.82;;;;;;;7.52;68.66;101982.25;5003878;28;20046;-60
2022/02/06 09:42:17;;;;;;;119.18;69.97;;;;;;;7.57;68.83;101983.00;5002664;28;20101;-60
2022/02/06 09:44:47;;;;;;;124.75;70.68;;;;;;;7.66;68.60;101981.91;5001597;28;20124;-60
2022/02/06 09:47:21;;;;;;;153.25;92.25;;;;;;;7.92;68.48;101980.38;5002946;28;20052;-61
2022/02/06 09:49:49;;;;;;;110.03;60.58;;;;;;;7.97;68.44;101984.63;5001808;28;20046;-60
2022/02/06 09:52:22;;;;;;;142.50;82.85;;;;;;;8.31;67.71;101977.63;5002836;28;20050;-60
2022/02/06 09:54:49;;;;;;;117.35;65.32;;;;;;;8.63;67.19;101962.81;5002342;28;20565;-60
2022/02/06 09:57:56;;;;;;;121.22;68.88;;;;;;;8.70;67.42;101955.63;5002450;28;20487;-60
2022/02/06 10:00:12;;;;;;;108.88;60.58;;;;;;;8.72;67.63;101956.47;5000980;28;20100;-59
2022/02/06 10:02:45;;;;;;;118.85;69.47;;;;;;;9.11;66.90;101956.16;5004001;28;20058;-59
2022/02/06 10:05:12;;;;;;;104.38;59.10;;;;;;;9.07;67.21;101954.56;5004726;28;20050;-60
2022/02/06 10:07:44;;;;;;;117.65;64.38;;;;;;;9.00;67.53;101956.47;5012517;28;20050;-60
2022/02/06 10:10:13;;;;;;;100.22;59.65;;;;;;;9.00;67.53;101966.97;5012392;28;20073;-60
2022/02/06 10:12:42;;;;;;;111.55;63.15;;;;;;;9.08;67.51;101956.28;5012399;28;20046;-60
2022/02/06 10:15:16;;;;;;;109.75;62.95;;;;;;;9.06;67.80;101956.31;5012344;28;20054;-60
2022/02/06 10:17:44;;;;;;;121.78;68.93;;;;;;;9.08;67.48;101953.66;5011310;28;20486;-60
2022/02/06 10:20:16;;;;;;;123.88;74.80;;;;;;;9.21;67.13;101952.34;5012497;28;20509;-60
2022/02/06 10:22:59;;;;;;;127.60;76.35;;;;;;;9.36;66.70;101951.03;5012254;28;20049;-60
2022/02/06 10:25:26;;;;;;;133.85;80.32;;;;;;;9.32;66.85;101944.16;5011976;28;20491;-60
2022/02/06 10:30:41;;;;;;;127.85;71.78;;;;;;;9.20;67.08;101941.94;5011908;28;20050;-60
2022/02/06 10:33:11;;;;;;;121.03;69.25;;;;;;;9.22;66.84;101933.13;5011354;28;20062;-60
2022/02/06 10:35:40;;;;;;;115.45;62.08;;;;;;;9.42;66.42;101929.00;5009501;28;20092;-60
2022/02/06 10:38:19;;;;;;;142.73;77.45;;;;;;;9.73;65.43;101917.50;5011755;28;20128;-60
2022/02/06 10:41:03;;;;;;;102.50;59.92;;;;;;;9.93;64.69;101919.44;5011773;28;20049;-60
2022/02/06 10:43:30;;;;;;;98.93;54.60;;;;;;;9.88;64.79;101918.72;5008553;28;20050;-61
2022/02/06 10:46:07;;;;;;;134.45;81.50;;;;;;;9.69;65.16;101928.97;5001281;28;20052;-61
2022/02/06 10:48:34;;;;;;;118.03;72.00;;;;;;;9.69;65.09;101934.22;5003439;28;20096;-61
2022/02/06 10:51:01;;;;;;;108.20;60.08;;;;;;;9.69;65.25;101916.75;5000831;28;20525;-61
2022/02/06 10:53:28;;;;;;;103.57;59.08;;;;;;;9.92;64.42;101920.34;5001995;28;20046;-63
2022/02/06 10:56:04;;;;;;;102.63;56.35;;;;;;;10.04;64.11;101914.66;4994771;28;20057;-61
2022/02/06 10:58:34;;;;;;;104.90;58.08;;;;;;;10.12;63.93;101914.41;4997109;28;20061;-61
2022/02/06 11:01:20;;;;;;;118.45;69.10;;;;;;;10.07;63.75;101898.81;4994403;28;20053;-60
2022/02/06 11:03:50;;;;;;;156.48;95.18;;;;;;;9.97;63.99;101893.03;4997168;28;20054;-60
2022/02/06 11:06:42;;;;;;;122.95;72.85;;;;;;;9.87;64.39;101901.31;4991872;28;20104;-61
2022/02/06 11:09:29;;;;;;;97.95;54.53;;;;;;;9.62;64.91;101891.66;5004871;28;20054;-61
2022/02/06 11:12:00;;;;;;;107.80;60.35;;;;;;;9.57;64.79;101894.44;5011370;28;20115;-61
2022/02/06 11:14:30;;;;;;;95.45;54.38;;;;;;;9.64;64.70;101881.97;5011298;28;20050;-61
2022/02/06 11:16:57;;;;;;;104.93;59.30;;;;;;;9.58;64.75;101883.03;5011500;28;20056;-61
2022/02/06 11:19:24;;;;;;;101.90;56.92;;;;;;;9.96;63.70;101874.75;5011123;28;20053;-61
2022/02/06 11:22:11;;;;;;;105.25;56.83;;;;;;;10.20;62.97;101872.16;5011488;28;20042;-61
2022/02/06 11:24:44;;;;;;;144.95;80.18;;;;;;;10.71;61.53;101868.47;5010219;28;20057;-61
2022/02/06 11:27:10;;;;;;;103.90;58.53;;;;;;;10.52;62.07;101868.34;5011156;28;20046;-61
2022/02/06 11:29:38;;;;;;;98.78;56.15;;;;;;;10.43;62.20;101860.81;5011035;28;20065;-61
2022/02/06 11:32:05;;;;;;;113.78;61.80;;;;;;;10.67;61.76;101853.75;5011009;28;20045;-61
2022/02/06 11:34:32;;;;;;;118.53;68.30;;;;;;;10.57;61.86;101845.38;5010899;28;20042;-61
2022/02/06 11:45:59;;;;;;;230.30;109.25;;;;;;;10.45;61.99;101830.13;5010951;28;20054;-61
2022/02/06 11:48:29;;;;;;;96.93;56.10;;;;;;;10.28;62.56;101831.59;5010622;28;20049;-61
2022/02/06 11:50:57;;;;;;;104.30;56.33;;;;;;;10.12;63.00;101823.44;5010571;28;20042;-62
2022/02/06 11:53:42;;;;;;;99.00;53.70;;;;;;;10.13;63.00;101816.41;5010511;28;20093;-61
2022/02/06 11:56:42;;;;;;;117.38;68.22;;;;;;;10.02;63.41;101808.97;5008998;28;20049;-61
2022/02/06 11:59:13;;;;;;;123.45;70.10;;;;;;;9.96;63.67;101822.31;5008668;28;20131;-61
2022/02/06 12:01:42;;;;;;;98.85;57.28;;;;;;;9.91;63.92;101817.22;5010396;28;20526;-61
2022/02/06 12:04:19;;;;;;;100.25;56.30;;;;;;;9.88;63.94;101814.72;5010485;28;20493;-61
2022/02/06 12:06:46;;;;;;;96.00;53.45;;;;;;;9.82;64.06;101808.84;5010596;28;20046;-61
2022/02/06 12:09:15;;;;;;;103.88;58.33;;;;;;;9.74;64.27;101799.50;5010332;28;20050;-61
2022/02/06 12:12:05;;;;;;;99.40;55.30;;;;;;;9.68;64.42;101783.97;5010232;28;20104;-61
2022/02/06 12:14:39;;;;;;;105.88;57.88;;;;;;;9.59;64.43;101786.94;5009144;28;20042;-61
2022/02/06 12:20:09;;;;;;;109.07;59.45;;;;;;;9.61;64.57;101780.72;5010173;28;20053;-61
2022/02/06 12:22:42;;;;;;;102.30;54.95;;;;;;;9.53;64.93;101776.69;5010090;28;20103;-61
2022/02/06 12:25:25;;;;;;;134.15;60.63;;;;;;;9.52;64.85;101762.69;5010124;28;20056;-61
2022/02/06 12:28:10;;;;;;;105.25;57.30;;;;;;;9.53;64.98;101753.09;5010179;28;20053;-60
2022/02/06 12:30:40;;;;;;;117.05;61.95;;;;;;;9.64;64.65;101748.31;5009712;28;20061;-61
2022/02/06 12:33:19;;;;;;;106.70;57.72;;;;;;;9.99;63.91;101746.13;5009416;28;20107;-61
2022/02/06 12:38:31;;;;;;;102.95;53.50;;;;;;;9.89;64.08;101737.78;5009741;28;20549;-61
2022/02/06 12:41:00;;;;;;;107.22;56.65;;;;;;;9.91;64.04;101729.84;5009973;28;20134;-61
2022/02/06 12:43:33;;;;;;;108.93;55.38;;;;;;;10.02;63.77;101726.81;5009629;28;20437;-61
2022/02/06 12:46:00;;;;;;;97.07;52.88;;;;;;;10.11;63.54;101722.06;5009952;28;20065;-61
2022/02/06 12:48:30;;;;;;;104.53;54.95;;;;;;;10.19;63.19;101713.06;5007303;28;20046;-61
2022/02/06 12:50:57;;;;;;;97.43;53.08;;;;;;;10.13;63.47;101708.88;5009604;28;20483;-61
2022/02/06 12:53:24;;;;;;;93.93;50.60;;;;;;;10.38;62.78;101702.72;5009395;28;20095;-61
2022/02/06 12:55:52;;;;;;;99.53;52.40;;;;;;;10.87;61.55;101687.56;5009530;28;20053;-61
2022/02/06 12:58:27;;;;;;;96.43;53.40;;;;;;;11.58;59.68;101684.44;5009626;28;20569;-61
2022/02/06 13:00:55;;;;;;;95.47;51.25;;;;;;;11.60;59.47;101676.47;5009568;28;20096;-61
2022/02/06 13:03:25;;;;;;;91.35;51.40;;;;;;;11.55;59.55;101663.56;5009471;28;20050;-61
2022/02/06 13:05:57;;;;;;;93.97;51.80;;;;;;;11.69;59.02;101662.03;5008572;28;20046;-61
2022/02/06 13:08:23;;;;;;;91.30;49.63;;;;;;;11.90;58.68;101658.41;5009293;28;20050;-62
2022/02/06 13:10:57;;;;;;;89.53;48.00;;;;;;;12.24;57.56;101654.19;5009415;28;20483;-61
2022/02/06 13:13:31;;;;;;;87.45;48.22;;;;;;;12.52;56.73;101644.91;5009334;28;20061;-60
2022/02/06 13:32:59;;;;;;;88.57;49.42;;;;;;;12.67;56.23;101600.28;5008983;28;20495;-61
2022/02/06 13:38:03;;;;;;;96.35;57.05;;;;;;;13.12;55.16;101588.25;5008515;28;20049;-61
2022/02/06 13:40:32;;;;;;;90.32;53.85;;;;;;;13.23;54.87;101591.19;5009255;28;20064;-61
2022/02/06 13:43:05;;;;;;;100.68;57.42;;;;;;;13.12;54.80;101582.16;5009363;28;20049;-61
2022/02/06 13:45:39;;;;;;;95.80;55.53;;;;;;;12.85;55.64;101582.66;5008941;28;20050;-61
2022/02/06 13:48:07;;;;;;;90.10;53.05;;;;;;;12.64;56.16;101579.41;5009022;28;20092;-61
2022/02/06 13:50:40;;;;;;;92.03;55.92;;;;;;;12.80;55.66;101587.31;5009038;28;20050;-60
2022/02/06 13:53:14;;;;;;;94.53;55.85;;;;;;;12.73;55.48;101582.41;5007915;28;20073;-61
2022/02/06 13:56:13;;;;;;;93.43;52.00;;;;;;;12.62;56.04;101578.63;5008648;28;20104;-61
2022/02/06 13:58:39;;;;;;;100.95;56.42;;;;;;;12.55;56.21;101588.63;5008958;28;20107;-61
2022/02/06 14:01:08;;;;;;;109.53;63.15;;;;;;;12.45;56.36;101579.50;5008950;28;20053;-62
2022/02/06 14:03:45;;;;;;;98.10;54.95;;;;;;;12.62;55.98;101579.47;5009065;28;20046;-61
2022/02/06 14:06:24;;;;;;;94.20;57.38;;;;;;;12.60;55.63;101570.81;5008885;28;20544;-61